createdAt,value
2023-03-23T15:57:53.691Z,16.45
2023-03-23T16:00:22.407Z,16.48
2023-03-23T16:02:53.942Z,16.50
2023-03-23T16:05:20.340Z,16.55
2023-03-23T16:07:46.647Z,16.58
2023-03-23T16:10:21.783Z,16.58
2023-03-23T16:12:48.149Z,16.61
2023-03-23T16:15:15.200Z,16.56
2023-03-23T16:17:42.400Z,16.51
2023-03-23T16:20:19.233Z,16.46
2023-03-23T16:22:46.640Z,16.43
2023-03-23T16:25:14.164Z,16.43
2023-03-23T16:27:41.927Z,16.41
2023-03-23T16:30:23.482Z,16.42
2023-03-23T16:32:49.960Z,16.39
2023-03-23T16:35:17.971Z,16.34
2023-03-23T16:37:49.474Z,16.31
2023-03-23T16:40:17.817Z,16.28
2023-03-23T16:42:44.414Z,16.25
2023-03-23T16:45:11.351Z,16.19
2023-03-23T16:47:38.418Z,16.13
2023-03-23T16:50:06.571Z,16.07
2023-03-23T16:52:33.654Z,16.02
2023-03-23T16:54:59.934Z,15.97
2023-03-23T16:57:26.312Z,15.92
2023-03-23T16:59:52.610Z,15.87
2023-03-23T17:02:19.081Z,15.82
2023-03-23T17:04:46.154Z,15.78
2023-03-23T17:07:13.406Z,15.77
2023-03-23T17:09:41.624Z,15.72
2023-03-23T17:12:08.481Z,15.69
2023-03-23T17:14:34.931Z,15.65
2023-03-23T17:17:02.384Z,15.64
2023-03-23T17:19:28.766Z,15.58
2023-03-23T17:21:55.079Z,15.52
2023-03-23T17:24:21.558Z,15.43
2023-03-23T17:26:47.993Z,15.33
2023-03-23T17:29:14.285Z,15.28
2023-03-23T17:31:40.675Z,15.18
2023-03-23T17:34:07.389Z,15.07
2023-03-23T17:36:33.759Z,15.00
2023-03-23T17:39:00.180Z,14.91
2023-03-23T17:41:26.464Z,14.86
2023-03-23T17:43:52.773Z,14.78
2023-03-23T17:46:19.126Z,14.72
2023-03-23T17:48:45.452Z,14.71
2023-03-23T17:51:11.757Z,14.67
2023-03-23T17:53:38.061Z,14.67
2023-03-23T17:56:05.726Z,14.66
2023-03-23T17:58:32.056Z,14.65
2023-03-23T18:00:58.485Z,14.66
2023-03-23T18:03:25.308Z,14.64
2023-03-23T18:05:57.066Z,14.64
2023-03-23T18:08:23.405Z,14.60
2023-03-23T18:10:49.780Z,14.60
2023-03-23T18:13:16.101Z,14.58
2023-03-23T18:15:46.791Z,14.55
2023-03-23T18:18:13.433Z,14.49
2023-03-23T18:20:39.857Z,14.43
2023-03-23T18:23:06.190Z,14.39
2023-03-23T18:25:32.971Z,14.35
2023-03-23T18:28:04.346Z,14.30
2023-03-23T18:30:32.080Z,14.27
2023-03-23T18:32:58.456Z,14.24
2023-03-23T18:35:24.755Z,14.19
2023-03-23T18:37:51.052Z,14.13
2023-03-23T18:40:17.786Z,14.13
2023-03-23T18:42:44.096Z,14.09
2023-03-23T18:45:11.174Z,14.07
2023-03-23T18:47:37.597Z,14.03
2023-03-23T18:50:06.802Z,14.00
2023-03-23T18:52:33.162Z,13.95
2023-03-23T18:55:00.118Z,13.92
2023-03-23T18:57:26.794Z,13.86
2023-03-23T18:59:53.201Z,13.80
2023-03-23T19:02:20.382Z,13.76
2023-03-23T19:04:48.183Z,13.73
2023-03-23T19:07:16.205Z,13.69
2023-03-23T19:09:43.367Z,13.64
2023-03-23T19:12:10.854Z,13.59
2023-03-23T19:14:38.120Z,13.55
2023-03-23T19:17:04.568Z,13.52
2023-03-23T19:19:30.897Z,13.48
2023-03-23T19:21:57.189Z,13.43
2023-03-23T19:24:23.551Z,13.37
2023-03-23T19:26:49.840Z,13.34
2023-03-23T19:31:47.807Z,13.27
2023-03-23T19:34:15.605Z,13.25
2023-03-23T19:36:42.125Z,13.23
2023-03-23T19:39:14.649Z,13.20
2023-03-23T19:41:41.911Z,13.20
2023-03-23T19:44:08.163Z,13.17
2023-03-23T19:46:34.523Z,13.16
2023-03-23T19:49:01.227Z,13.16
2023-03-23T19:51:28.557Z,13.15
2023-03-23T19:53:57.184Z,13.14
2023-03-23T19:56:24.087Z,13.13
2023-03-23T19:58:50.809Z,13.14
2023-03-23T20:01:17.888Z,13.15
2023-03-23T20:03:45.359Z,13.14
2023-03-23T20:06:13.918Z,13.14
2023-03-23T20:08:43.758Z,13.14
2023-03-23T20:11:18.118Z,13.15
2023-03-23T20:13:45.421Z,13.16
2023-03-23T20:16:12.040Z,13.16
2023-03-23T20:18:38.450Z,13.17
2023-03-23T20:21:08.074Z,13.17
2023-03-23T20:23:35.659Z,13.20
2023-03-23T20:26:27.302Z,13.22
2023-03-23T20:28:53.885Z,13.24
2023-03-23T20:31:26.699Z,13.25
2023-03-23T20:33:59.993Z,13.22
2023-03-23T20:36:29.915Z,13.20
2023-03-23T20:38:56.282Z,13.18
2023-03-23T20:41:23.788Z,13.17
2023-03-23T20:43:50.394Z,13.19
2023-03-23T20:46:16.760Z,13.21
2023-03-23T20:48:43.076Z,13.23
2023-03-23T20:51:10.030Z,13.26
2023-03-23T20:53:37.127Z,13.27
2023-03-23T20:56:05.688Z,13.27
2023-03-23T20:58:33.169Z,13.28
2023-03-23T21:01:02.159Z,13.26
2023-03-23T21:03:32.192Z,13.21
2023-03-23T21:05:58.598Z,13.17
2023-03-23T21:08:25.114Z,13.14
2023-03-23T21:10:51.979Z,13.12
2023-03-23T21:13:18.387Z,13.10
2023-03-23T21:15:45.321Z,13.11
2023-03-23T21:18:12.159Z,13.10
2023-03-23T21:20:38.881Z,13.09
2023-03-23T21:23:05.757Z,13.08
2023-03-23T21:25:35.333Z,13.06
2023-03-23T21:28:02.254Z,13.07
2023-03-23T21:30:28.579Z,13.08
2023-03-23T21:32:55.050Z,13.09
2023-03-23T21:35:21.856Z,13.12
2023-03-23T21:37:48.328Z,13.13
2023-03-23T21:40:16.920Z,13.13
2023-03-23T21:42:44.455Z,13.12
2023-03-23T21:45:13.092Z,13.14
2023-03-23T21:47:40.220Z,13.14
2023-03-23T21:50:06.902Z,13.17
2023-03-23T21:52:33.541Z,13.17
2023-03-23T21:55:00.425Z,13.19
2023-03-23T21:57:26.745Z,13.21
2023-03-23T21:59:53.135Z,13.23
2023-03-23T22:02:19.484Z,13.25
2023-03-23T22:04:46.098Z,13.26
2023-03-23T22:07:12.423Z,13.28
2023-03-23T22:09:39.278Z,13.28
2023-03-23T22:12:05.762Z,13.28
2023-03-23T22:14:32.071Z,13.26
2023-03-23T22:16:58.392Z,13.23
2023-03-23T22:19:24.716Z,13.20
2023-03-23T22:21:51.034Z,13.20
2023-03-23T22:24:17.666Z,13.21
2023-03-23T22:26:44.371Z,13.21
2023-03-23T22:29:11.263Z,13.18
2023-03-23T22:31:38.959Z,13.15
2023-03-23T22:34:05.797Z,13.14
2023-03-23T22:36:32.844Z,13.10
2023-03-23T22:39:00.314Z,13.10
2023-03-23T22:41:30.920Z,13.11
2023-03-23T22:43:57.417Z,13.12
2023-03-23T22:46:24.082Z,13.13
2023-03-23T22:48:50.532Z,13.15
2023-03-23T22:51:18.301Z,13.15
2023-03-23T22:53:45.857Z,13.20
2023-03-23T22:56:12.902Z,13.23
2023-03-23T22:58:39.246Z,13.25
2023-03-23T23:01:09.076Z,13.27
2023-03-23T23:03:35.485Z,13.31
2023-03-23T23:06:02.311Z,13.33
2023-03-23T23:08:29.949Z,13.36
2023-03-23T23:10:58.413Z,13.36
2023-03-23T23:13:25.477Z,13.36
2023-03-23T23:15:55.549Z,13.37
2023-03-23T23:18:22.953Z,13.39
2023-03-23T23:20:52.074Z,13.40
2023-03-23T23:23:18.613Z,13.41
2023-03-23T23:25:45.326Z,13.41
2023-03-23T23:28:12.486Z,13.39
2023-03-23T23:30:39.177Z,13.38
2023-03-23T23:33:06.099Z,13.37
2023-03-23T23:35:32.736Z,13.38
2023-03-23T23:37:59.035Z,13.38
2023-03-23T23:40:25.369Z,13.37
2023-03-23T23:42:52.312Z,13.35
2023-03-23T23:45:19.603Z,13.29
2023-03-23T23:47:46.221Z,13.26
2023-03-23T23:50:14.112Z,13.21
2023-03-23T23:52:41.388Z,13.18
2023-03-23T23:55:08.980Z,13.13
2023-03-23T23:57:36.021Z,13.07
